FW1522 Eastport NY US current weather conditions

sailwx.info

Wind from 221 at 1 knots gusting 6

Air temperature 0.6° C
Dewpoint -6.1° C

Last reported at 2019-Dec-08 15:59 UTC.
Time now 2019-Dec-08 16:37 UTC

Location: N 40°51' W 072°44'.
View on Google Maps.

See reports from other nearby stations

  
Tides and Currents Weather Stations Pressure Air Temp Water Temp Dewpoint Dewpoint Depression Visibility Wind Speed Wind Dir Waves Ship Positions
date/time (UTC)wind fromknots sea level pressurealtimeterstation pressurevisibilityair tempwater tempwave heightnotes
2019-Dec-08 15:59 221 1 gusting 6 0.6
2019-Dec-08 15:44 139 4 gusting 6 0.6
2019-Dec-08 15:29 227 1 gusting 2 -0.0
2019-Dec-08 14:59 109 2 gusting 6 -0.6
2019-Dec-08 14:44 139 1 gusting 3 -0.6
2019-Dec-08 14:28 163 0 gusting 3 -1.1
2019-Dec-08 13:59 344 -2.8
2019-Dec-08 13:44 344 -4.4
2019-Dec-08 13:28 344 -5.6
2019-Dec-08 12:59 344 0 gusting 1 -7.8
2019-Dec-08 12:44 344 -8.9
2019-Dec-08 12:13 344 -8.9
2019-Dec-08 11:29 344 -8.3
2019-Dec-08 11:14 344 -8.3
2019-Dec-08 10:43 344 1 gusting 3 -7.8
2019-Dec-08 10:28 344 0 gusting 1 -7.8
2019-Dec-08 09:58 344 -6.7
2019-Dec-08 09:43 344 0 gusting 1 -6.7
2019-Dec-08 09:13 344 -6.1
2019-Dec-08 08:58 344 0 gusting 1 -5.6
2019-Dec-08 08:43 344 0 gusting 1 -4.4
2019-Dec-08 08:13 344 1 gusting 4 -3.3
2019-Dec-08 07:58 345 3 gusting 6 -3.3
2019-Dec-08 07:43 360 4 gusting 7 -3.3
2019-Dec-08 07:28 011 6 gusting 8 -3.3
2019-Dec-08 06:58 007 6 gusting 9 -3.3
2019-Dec-08 06:43 028 6 gusting 10 -3.3
2019-Dec-08 06:13 028 5 gusting 8 -3.3
2019-Dec-08 05:58 015 3 gusting 7 -3.3
2019-Dec-08 05:43 025 1 gusting 4 -3.3
2019-Dec-08 05:28 035 2 gusting 4 -3.3
2019-Dec-08 04:58 001 0 gusting 3 -2.8
2019-Dec-08 04:43 355 2 gusting 6 -2.8
2019-Dec-08 04:28 018 3 gusting 7 -2.2
2019-Dec-08 03:58 019 4 gusting 6 -2.8
2019-Dec-08 03:43 017 2 gusting 4 -2.8
2019-Dec-08 02:58 006 0 gusting 2 -2.8
2019-Dec-08 02:43 005 1 gusting 2 -1.7
2019-Dec-08 02:28 006 0 gusting 2 -1.1
2019-Dec-08 02:13 005 1 gusting 3 -1.1
2019-Dec-08 01:28 003 6 gusting 9 -0.6
2019-Dec-08 01:13 019 8 gusting 14 -1.7
2019-Dec-08 00:43 305 1 gusting 2 -2.8
2019-Dec-08 00:13 305 0 gusting 1 -3.3
2019-Dec-07 23:58 305 -3.3
2019-Dec-07 23:28 305 0 gusting 1 -2.8
2019-Dec-07 23:13 305 -2.2
2019-Dec-07 22:58 305 -1.7
2019-Dec-07 22:28 305 1 gusting 2 -0.0
2019-Dec-07 21:58 305 1 gusting 4 0.6
2019-Dec-07 21:28 292 5 gusting 9 1.1
2019-Dec-07 21:13 338 5 gusting 13 1.7
2019-Dec-07 20:43 294 4 gusting 8 1.7
2019-Dec-07 20:28 338 5 gusting 12 1.7
2019-Dec-07 20:13 344 5 gusting 10 1.1
2019-Dec-07 19:43 338 7 gusting 13 1.7
2019-Dec-07 19:28 338 10 gusting 13 1.7
2019-Dec-07 18:58 315 6 gusting 18 2.2
2019-Dec-07 18:43 316 7 gusting 15 2.2
2019-Dec-07 18:28 351 8 gusting 14 2.2
2019-Dec-07 17:58 306 7 gusting 14 2.2
2019-Dec-07 17:43 338 9 gusting 13 2.2
2019-Dec-07 17:28 342 6 gusting 14 2.2
2019-Dec-07 16:58 306 11 gusting 16 2.2
2019-Dec-07 16:43 342 10 gusting 14 2.2
2019-Dec-07 16:13 306 6 gusting 13 1.7
2019-Dec-07 15:58 011 10 gusting 15 1.7
2019-Dec-07 15:43 348 8 gusting 15 1.7
2019-Dec-07 15:28 018 8 gusting 17 1.7
2019-Dec-07 15:13 338 10 gusting 15 1.7
2019-Dec-07 14:43 002 8 gusting 15 1.1
2019-Dec-07 14:28 303 7 gusting 12 1.1
2019-Dec-07 14:13 342 5 gusting 12 0.6
2019-Dec-07 13:43 322 6 gusting 9 -0.0
2019-Dec-07 13:28 312 6 gusting 9 -0.0
2019-Dec-07 12:58 321 1 gusting 5 -0.6
2019-Dec-07 12:43 300 2 gusting 4 -0.6
2019-Dec-07 12:28 343 4 gusting 9 -1.1
2019-Dec-07 11:58 328 5 gusting 7 -0.6
2019-Dec-07 11:43 328 6 gusting 9 -0.6
2019-Dec-07 11:28 333 5 gusting 10 -0.6
2019-Dec-07 10:58 353 5 gusting 7 -0.6
2019-Dec-07 10:28 359 6 gusting 9 -0.0
2019-Dec-07 10:13 344 6 gusting 11 -0.0
2019-Dec-07 09:58 338 6 gusting 10 -0.0
2019-Dec-07 09:43 342 5 gusting 11 -0.0
2019-Dec-07 09:13 352 8 gusting 12 0.6
2019-Dec-07 08:58 338 6 gusting 12 0.6
2019-Dec-07 08:43 328 7 gusting 14 1.1
2019-Dec-07 08:13 328 7 gusting 13 1.1
2019-Dec-07 07:58 328 6 gusting 11 1.7
2019-Dec-07 07:43 338 7 gusting 19 1.7
2019-Dec-07 06:59 328 11 gusting 17 1.7
2019-Dec-07 06:44 346 11 gusting 18 2.2
2019-Dec-07 06:28 328 10 gusting 17 2.2
2019-Dec-07 05:59 011 13 gusting 20 2.8
2019-Dec-07 05:29 009 10 gusting 16 2.8
2019-Dec-07 04:59 338 10 gusting 15 3.3
2019-Dec-07 04:44 001 6 gusting 13 3.9
2019-Dec-07 04:29 346 7 gusting 11 4.4
2019-Dec-07 03:59 328 6 gusting 15 5.0
2019-Dec-07 03:44 320 8 gusting 19 5.6
2019-Dec-07 03:29 342 8 gusting 18 5.6
2019-Dec-07 03:14 338 11 gusting 19 6.1
2019-Dec-07 02:44 288 9 gusting 15 6.7
2019-Dec-07 02:29 317 6 gusting 18 7.2
2019-Dec-07 02:14 292 11 gusting 23 7.8
2019-Dec-07 01:58 322 10 gusting 18 8.3
2019-Dec-07 01:29 286 10 gusting 19 8.9
2019-Dec-07 01:14 305 12 gusting 24 8.9
2019-Dec-07 00:59 301 6 gusting 16 8.9
2019-Dec-07 00:44 307 6 gusting 12 8.9
2019-Dec-07 00:28 246 6 gusting 12 8.3
2019-Dec-07 00:13 254 4 gusting 9 8.3
2019-Dec-06 23:58 271 3 gusting 8 8.3
2019-Dec-06 23:43 286 6 gusting 11 8.3
2019-Dec-06 23:13 250 5 gusting 13 8.3
2019-Dec-06 22:58 267 5 gusting 12 8.3
2019-Dec-06 22:43 238 6 gusting 16 8.3
2019-Dec-06 22:13 198 6 gusting 15 8.3
2019-Dec-06 21:58 242 8 gusting 23 8.3
2019-Dec-06 21:43 254 6 gusting 15 8.3
2019-Dec-06 21:13 207 6 gusting 12 8.3
2019-Dec-06 20:43 225 8 gusting 19 8.3
2019-Dec-06 20:28 224 6 gusting 15 8.3
2019-Dec-06 19:58 209 7 gusting 17 8.3
2019-Dec-06 19:43 229 6 gusting 19 8.3
2019-Dec-06 19:13 227 7 gusting 19 7.8
2019-Dec-06 18:58 257 5 gusting 17 7.8
2019-Dec-06 18:43 216 6 gusting 15 7.2
2019-Dec-06 18:28 239 6 gusting 18 7.2
2019-Dec-06 17:58 248 5 gusting 10 6.7
2019-Dec-06 17:43 198 6 gusting 14 6.7
2019-Dec-06 17:28 211 6 gusting 13 6.1
2019-Dec-06 17:13 224 7 gusting 14 6.1
2019-Dec-06 16:43 206 5 gusting 14 6.1
2019-Dec-06 16:28 243 6 gusting 13 5.6